sensor_id;sensor_type;location;lat;lon;timestamp;P1;durP1;ratioP1;P2;durP2;ratioP2
31910;SDS011;18457;52.432;16.914;2023-04-15T00:00:29;17.10;;;10.40;;
31910;SDS011;18457;52.432;16.914;2023-04-15T00:03:16;19.30;;;11.00;;
31910;SDS011;18457;52.432;16.914;2023-04-15T00:05:48;12.10;;;6.50;;
31910;SDS011;18457;52.432;16.914;2023-04-15T00:08:20;15.50;;;9.90;;
31910;SDS011;18457;52.432;16.914;2023-04-15T00:13:23;15.30;;;9.50;;
31910;SDS011;18457;52.432;16.914;2023-04-15T00:15:55;13.30;;;7.50;;
31910;SDS011;18457;52.432;16.914;2023-04-15T00:18:27;13.30;;;9.30;;
31910;SDS011;18457;52.432;16.914;2023-04-15T00:20:59;13.80;;;9.60;;
31910;SDS011;18457;52.432;16.914;2023-04-15T00:23:31;16.30;;;10.20;;
31910;SDS011;18457;52.432;16.914;2023-04-15T00:26:04;14.50;;;9.90;;
31910;SDS011;18457;52.432;16.914;2023-04-15T00:28:36;17.00;;;9.80;;
31910;SDS011;18457;52.432;16.914;2023-04-15T00:33:40;18.30;;;10.30;;
31910;SDS011;18457;52.432;16.914;2023-04-15T00:36:12;17.70;;;10.90;;
31910;SDS011;18457;52.432;16.914;2023-04-15T00:38:44;11.00;;;7.20;;
31910;SDS011;18457;52.432;16.914;2023-04-15T00:41:16;17.40;;;10.50;;
31910;SDS011;18457;52.432;16.914;2023-04-15T00:43:49;15.60;;;10.40;;
31910;SDS011;18457;52.432;16.914;2023-04-15T00:46:21;15.60;;;10.30;;
31910;SDS011;18457;52.432;16.914;2023-04-15T00:48:55;18.10;;;11.00;;
31910;SDS011;18457;52.432;16.914;2023-04-15T00:51:27;14.20;;;10.30;;
31910;SDS011;18457;52.432;16.914;2023-04-15T00:54:01;15.90;;;10.40;;
31910;SDS011;18457;52.432;16.914;2023-04-15T00:56:35;16.30;;;10.20;;
31910;SDS011;18457;52.432;16.914;2023-04-15T00:59:07;14.90;;;9.80;;
31910;SDS011;18457;52.432;16.914;2023-04-15T01:01:40;15.50;;;10.10;;
31910;SDS011;18457;52.432;16.914;2023-04-15T01:04:14;16.20;;;10.70;;
31910;SDS011;18457;52.432;16.914;2023-04-15T01:06:46;17.80;;;10.70;;
31910;SDS011;18457;52.432;16.914;2023-04-15T01:09:19;20.00;;;10.80;;
31910;SDS011;18457;52.432;16.914;2023-04-15T01:11:52;16.60;;;10.10;;
31910;SDS011;18457;52.432;16.914;2023-04-15T01:14:26;18.60;;;10.80;;
31910;SDS011;18457;52.432;16.914;2023-04-15T01:16:59;19.20;;;11.60;;
31910;SDS011;18457;52.432;16.914;2023-04-15T01:19:31;19.30;;;11.10;;
31910;SDS011;18457;52.432;16.914;2023-04-15T01:22:03;23.30;;;11.90;;
31910;SDS011;18457;52.432;16.914;2023-04-15T01:24:35;11.40;;;8.10;;
31910;SDS011;18457;52.432;16.914;2023-04-15T01:27:07;21.00;;;11.30;;
31910;SDS011;18457;52.432;16.914;2023-04-15T01:29:39;15.00;;;10.80;;
31910;SDS011;18457;52.432;16.914;2023-04-15T01:32:12;19.70;;;11.40;;
31910;SDS011;18457;52.432;16.914;2023-04-15T01:37:15;16.60;;;10.80;;
31910;SDS011;18457;52.432;16.914;2023-04-15T01:39:47;17.00;;;11.50;;
31910;SDS011;18457;52.432;16.914;2023-04-15T01:42:19;21.30;;;12.20;;
31910;SDS011;18457;52.432;16.914;2023-04-15T01:47:22;14.70;;;10.00;;
31910;SDS011;18457;52.432;16.914;2023-04-15T01:49:55;20.60;;;12.00;;
31910;SDS011;18457;52.432;16.914;2023-04-15T01:52:27;18.20;;;11.50;;
31910;SDS011;18457;52.432;16.914;2023-04-15T01:55:00;16.10;;;10.80;;
31910;SDS011;18457;52.432;16.914;2023-04-15T01:57:32;18.40;;;10.80;;
31910;SDS011;18457;52.432;16.914;2023-04-15T02:00:05;16.30;;;11.50;;
31910;SDS011;18457;52.432;16.914;2023-04-15T02:02:43;22.20;;;11.20;;
31910;SDS011;18457;52.432;16.914;2023-04-15T02:05:15;22.80;;;12.60;;
31910;SDS011;18457;52.432;16.914;2023-04-15T02:07:48;20.20;;;13.70;;
31910;SDS011;18457;52.432;16.914;2023-04-15T02:10:21;24.50;;;16.80;;
31910;SDS011;18457;52.432;16.914;2023-04-15T02:12:55;22.70;;;14.70;;
31910;SDS011;18457;52.432;16.914;2023-04-15T02:15:29;20.70;;;14.30;;
31910;SDS011;18457;52.432;16.914;2023-04-15T02:18:01;22.30;;;15.00;;
31910;SDS011;18457;52.432;16.914;2023-04-15T02:20:33;19.80;;;13.80;;
31910;SDS011;18457;52.432;16.914;2023-04-15T02:25:36;26.50;;;16.10;;
31910;SDS011;18457;52.432;16.914;2023-04-15T02:28:08;27.40;;;15.70;;
31910;SDS011;18457;52.432;16.914;2023-04-15T02:30:40;22.90;;;15.10;;
31910;SDS011;18457;52.432;16.914;2023-04-15T02:33:12;23.30;;;15.60;;
31910;SDS011;18457;52.432;16.914;2023-04-15T02:35:44;20.80;;;13.20;;
31910;SDS011;18457;52.432;16.914;2023-04-15T02:38:16;20.80;;;12.80;;
31910;SDS011;18457;52.432;16.914;2023-04-15T02:40:48;20.70;;;12.70;;
31910;SDS011;18457;52.432;16.914;2023-04-15T02:43:20;28.30;;;13.30;;
31910;SDS011;18457;52.432;16.914;2023-04-15T02:45:54;21.60;;;13.00;;
31910;SDS011;18457;52.432;16.914;2023-04-15T02:48:28;20.20;;;13.70;;
31910;SDS011;18457;52.432;16.914;2023-04-15T02:51:16;17.90;;;12.90;;
31910;SDS011;18457;52.432;16.914;2023-04-15T02:53:49;28.30;;;13.50;;
31910;SDS011;18457;52.432;16.914;2023-04-15T02:56:21;20.70;;;14.20;;
31910;SDS011;18457;52.432;16.914;2023-04-15T02:58:53;19.70;;;12.30;;
31910;SDS011;18457;52.432;16.914;2023-04-15T03:01:25;20.50;;;12.70;;
31910;SDS011;18457;52.432;16.914;2023-04-15T03:03:57;20.60;;;9.30;;
31910;SDS011;18457;52.432;16.914;2023-04-15T03:06:29;24.60;;;13.60;;
31910;SDS011;18457;52.432;16.914;2023-04-15T03:09:01;17.90;;;11.70;;
31910;SDS011;18457;52.432;16.914;2023-04-15T03:11:35;20.90;;;12.80;;
31910;SDS011;18457;52.432;16.914;2023-04-15T03:14:10;23.20;;;13.50;;
31910;SDS011;18457;52.432;16.914;2023-04-15T03:16:45;21.30;;;12.70;;
31910;SDS011;18457;52.432;16.914;2023-04-15T03:19:19;20.30;;;12.80;;
31910;SDS011;18457;52.432;16.914;2023-04-15T03:21:50;22.10;;;14.10;;
31910;SDS011;18457;52.432;16.914;2023-04-15T03:24:22;19.00;;;12.50;;
31910;SDS011;18457;52.432;16.914;2023-04-15T03:26:57;23.10;;;13.80;;
31910;SDS011;18457;52.432;16.914;2023-04-15T03:29:30;21.70;;;14.20;;
31910;SDS011;18457;52.432;16.914;2023-04-15T03:32:03;23.50;;;14.70;;
31910;SDS011;18457;52.432;16.914;2023-04-15T03:34:35;23.50;;;14.10;;
31910;SDS011;18457;52.432;16.914;2023-04-15T03:37:07;25.10;;;15.30;;
31910;SDS011;18457;52.432;16.914;2023-04-15T03:39:39;21.20;;;13.80;;
31910;SDS011;18457;52.432;16.914;2023-04-15T03:42:11;24.50;;;14.50;;
31910;SDS011;18457;52.432;16.914;2023-04-15T03:44:43;24.30;;;15.80;;
31910;SDS011;18457;52.432;16.914;2023-04-15T03:47:14;16.70;;;10.60;;
31910;SDS011;18457;52.432;16.914;2023-04-15T03:49:47;27.80;;;15.70;;
31910;SDS011;18457;52.432;16.914;2023-04-15T03:52:19;24.50;;;15.10;;
31910;SDS011;18457;52.432;16.914;2023-04-15T03:54:51;29.20;;;15.50;;
31910;SDS011;18457;52.432;16.914;2023-04-15T03:57:22;25.40;;;15.80;;
31910;SDS011;18457;52.432;16.914;2023-04-15T03:59:54;26.20;;;17.20;;
31910;SDS011;18457;52.432;16.914;2023-04-15T04:02:26;19.10;;;12.10;;
31910;SDS011;18457;52.432;16.914;2023-04-15T04:04:58;24.60;;;16.10;;
31910;SDS011;18457;52.432;16.914;2023-04-15T04:07:30;26.90;;;17.00;;
31910;SDS011;18457;52.432;16.914;2023-04-15T04:10:02;26.80;;;16.30;;
31910;SDS011;18457;52.432;16.914;2023-04-15T04:12:35;23.10;;;16.20;;
31910;SDS011;18457;52.432;16.914;2023-04-15T04:15:08;30.20;;;19.00;;
31910;SDS011;18457;52.432;16.914;2023-04-15T04:17:40;26.30;;;17.60;;
31910;SDS011;18457;52.432;16.914;2023-04-15T04:20:12;23.30;;;15.80;;
31910;SDS011;18457;52.432;16.914;2023-04-15T04:22:44;28.90;;;16.50;;
31910;SDS011;18457;52.432;16.914;2023-04-15T04:25:16;25.50;;;16.60;;
31910;SDS011;18457;52.432;16.914;2023-04-15T04:27:48;29.30;;;17.60;;
31910;SDS011;18457;52.432;16.914;2023-04-15T04:30:20;20.70;;;11.60;;
31910;SDS011;18457;52.432;16.914;2023-04-15T04:32:51;26.20;;;16.90;;
31910;SDS011;18457;52.432;16.914;2023-04-15T04:35:23;25.70;;;16.60;;
31910;SDS011;18457;52.432;16.914;2023-04-15T04:37:55;26.50;;;17.50;;
31910;SDS011;18457;52.432;16.914;2023-04-15T04:40:27;26.30;;;16.90;;
31910;SDS011;18457;52.432;16.914;2023-04-15T04:42:59;28.60;;;19.10;;
31910;SDS011;18457;52.432;16.914;2023-04-15T04:45:30;26.40;;;16.20;;
31910;SDS011;18457;52.432;16.914;2023-04-15T04:48:02;26.20;;;16.70;;
31910;SDS011;18457;52.432;16.914;2023-04-15T04:50:36;26.10;;;17.30;;
31910;SDS011;18457;52.432;16.914;2023-04-15T04:53:08;30.70;;;17.80;;
31910;SDS011;18457;52.432;16.914;2023-04-15T04:55:40;25.30;;;16.40;;
31910;SDS011;18457;52.432;16.914;2023-04-15T04:58:12;28.00;;;17.50;;
31910;SDS011;18457;52.432;16.914;2023-04-15T05:00:44;28.60;;;17.20;;
31910;SDS011;18457;52.432;16.914;2023-04-15T05:03:16;25.40;;;16.00;;
31910;SDS011;18457;52.432;16.914;2023-04-15T05:05:48;26.90;;;17.50;;
31910;SDS011;18457;52.432;16.914;2023-04-15T05:08:20;26.60;;;17.20;;
31910;SDS011;18457;52.432;16.914;2023-04-15T05:10:52;30.30;;;17.30;;
31910;SDS011;18457;52.432;16.914;2023-04-15T05:13:25;30.30;;;17.80;;
31910;SDS011;18457;52.432;16.914;2023-04-15T05:15:58;30.00;;;18.40;;
31910;SDS011;18457;52.432;16.914;2023-04-15T05:18:30;27.80;;;17.70;;
31910;SDS011;18457;52.432;16.914;2023-04-15T05:21:03;28.80;;;18.20;;
31910;SDS011;18457;52.432;16.914;2023-04-15T05:23:35;24.50;;;16.30;;
31910;SDS011;18457;52.432;16.914;2023-04-15T05:26:07;28.90;;;18.00;;
31910;SDS011;18457;52.432;16.914;2023-04-15T05:28:39;27.10;;;18.00;;
31910;SDS011;18457;52.432;16.914;2023-04-15T05:31:11;31.20;;;18.80;;
31910;SDS011;18457;52.432;16.914;2023-04-15T05:33:43;28.90;;;18.00;;
31910;SDS011;18457;52.432;16.914;2023-04-15T05:36:15;23.10;;;16.40;;
31910;SDS011;18457;52.432;16.914;2023-04-15T05:38:47;19.20;;;12.90;;
31910;SDS011;18457;52.432;16.914;2023-04-15T05:41:19;27.10;;;17.20;;
31910;SDS011;18457;52.432;16.914;2023-04-15T05:43:51;29.70;;;18.00;;
31910;SDS011;18457;52.432;16.914;2023-04-15T05:46:22;34.20;;;19.30;;
31910;SDS011;18457;52.432;16.914;2023-04-15T05:48:55;29.10;;;18.40;;
31910;SDS011;18457;52.432;16.914;2023-04-15T05:51:28;30.30;;;18.00;;
31910;SDS011;18457;52.432;16.914;2023-04-15T05:54:00;26.20;;;18.40;;
31910;SDS011;18457;52.432;16.914;2023-04-15T05:56:32;28.60;;;18.30;;
31910;SDS011;18457;52.432;16.914;2023-04-15T05:59:04;28.20;;;18.10;;
31910;SDS011;18457;52.432;16.914;2023-04-15T06:01:36;27.40;;;18.10;;
31910;SDS011;18457;52.432;16.914;2023-04-15T06:04:08;27.00;;;16.90;;
31910;SDS011;18457;52.432;16.914;2023-04-15T06:06:41;25.40;;;17.70;;
31910;SDS011;18457;52.432;16.914;2023-04-15T06:09:13;28.10;;;17.90;;
31910;SDS011;18457;52.432;16.914;2023-04-15T06:11:45;30.70;;;18.60;;
31910;SDS011;18457;52.432;16.914;2023-04-15T06:14:17;26.50;;;17.00;;
31910;SDS011;18457;52.432;16.914;2023-04-15T06:16:48;26.10;;;17.50;;
31910;SDS011;18457;52.432;16.914;2023-04-15T06:19:20;24.60;;;14.90;;
31910;SDS011;18457;52.432;16.914;2023-04-15T06:21:52;25.80;;;18.50;;
31910;SDS011;18457;52.432;16.914;2023-04-15T06:24:24;27.40;;;19.00;;
31910;SDS011;18457;52.432;16.914;2023-04-15T06:26:56;19.30;;;12.10;;
31910;SDS011;18457;52.432;16.914;2023-04-15T06:29:30;28.60;;;18.40;;
31910;SDS011;18457;52.432;16.914;2023-04-15T06:32:02;27.90;;;18.90;;
31910;SDS011;18457;52.432;16.914;2023-04-15T06:34:34;28.30;;;18.60;;
31910;SDS011;18457;52.432;16.914;2023-04-15T06:37:07;24.30;;;16.50;;
31910;SDS011;18457;52.432;16.914;2023-04-15T06:39:44;29.30;;;17.00;;
31910;SDS011;18457;52.432;16.914;2023-04-15T06:42:16;25.60;;;16.90;;
31910;SDS011;18457;52.432;16.914;2023-04-15T06:44:48;27.60;;;17.80;;
31910;SDS011;18457;52.432;16.914;2023-04-15T06:47:20;17.20;;;12.50;;
31910;SDS011;18457;52.432;16.914;2023-04-15T06:49:52;28.40;;;17.00;;
31910;SDS011;18457;52.432;16.914;2023-04-15T06:52:24;25.00;;;17.00;;
31910;SDS011;18457;52.432;16.914;2023-04-15T06:54:56;28.40;;;17.10;;
31910;SDS011;18457;52.432;16.914;2023-04-15T06:57:29;23.40;;;16.10;;
31910;SDS011;18457;52.432;16.914;2023-04-15T07:00:04;25.70;;;15.70;;
31910;SDS011;18457;52.432;16.914;2023-04-15T07:02:39;23.40;;;15.60;;
31910;SDS011;18457;52.432;16.914;2023-04-15T07:05:12;24.90;;;16.30;;
31910;SDS011;18457;52.432;16.914;2023-04-15T07:07:44;24.80;;;15.40;;
31910;SDS011;18457;52.432;16.914;2023-04-15T07:10:16;26.40;;;15.40;;
31910;SDS011;18457;52.432;16.914;2023-04-15T07:12:49;30.60;;;16.60;;
31910;SDS011;18457;52.432;16.914;2023-04-15T07:15:21;16.60;;;10.50;;
31910;SDS011;18457;52.432;16.914;2023-04-15T07:17:53;25.40;;;16.10;;
31910;SDS011;18457;52.432;16.914;2023-04-15T07:20:25;23.50;;;14.30;;
31910;SDS011;18457;52.432;16.914;2023-04-15T07:22:57;22.40;;;15.40;;
31910;SDS011;18457;52.432;16.914;2023-04-15T07:25:29;22.40;;;15.30;;
31910;SDS011;18457;52.432;16.914;2023-04-15T07:28:01;25.90;;;16.80;;
31910;SDS011;18457;52.432;16.914;2023-04-15T07:30:34;25.20;;;16.50;;
31910;SDS011;18457;52.432;16.914;2023-04-15T07:33:06;22.70;;;15.20;;
31910;SDS011;18457;52.432;16.914;2023-04-15T07:35:42;22.90;;;16.30;;
31910;SDS011;18457;52.432;16.914;2023-04-15T07:38:17;23.80;;;16.40;;
31910;SDS011;18457;52.432;16.914;2023-04-15T07:40:55;24.40;;;16.30;;
31910;SDS011;18457;52.432;16.914;2023-04-15T07:43:30;26.70;;;15.30;;
31910;SDS011;18457;52.432;16.914;2023-04-15T07:46:03;29.20;;;17.50;;
31910;SDS011;18457;52.432;16.914;2023-04-15T07:48:39;22.20;;;15.20;;
31910;SDS011;18457;52.432;16.914;2023-04-15T07:53:44;27.20;;;17.00;;
31910;SDS011;18457;52.432;16.914;2023-04-15T07:56:21;21.70;;;14.80;;
31910;SDS011;18457;52.432;16.914;2023-04-15T07:58:58;25.00;;;15.80;;
31910;SDS011;18457;52.432;16.914;2023-04-15T08:01:33;21.30;;;14.70;;
31910;SDS011;18457;52.432;16.914;2023-04-15T08:04:07;21.50;;;14.20;;
31910;SDS011;18457;52.432;16.914;2023-04-15T08:06:42;26.10;;;15.60;;
31910;SDS011;18457;52.432;16.914;2023-04-15T08:09:16;25.50;;;14.30;;
31910;SDS011;18457;52.432;16.914;2023-04-15T08:11:49;21.20;;;14.60;;
31910;SDS011;18457;52.432;16.914;2023-04-15T08:14:21;24.90;;;14.40;;
31910;SDS011;18457;52.432;16.914;2023-04-15T08:16:53;14.20;;;10.30;;
31910;SDS011;18457;52.432;16.914;2023-04-15T08:19:26;20.60;;;13.80;;
31910;SDS011;18457;52.432;16.914;2023-04-15T08:21:58;19.50;;;13.10;;
31910;SDS011;18457;52.432;16.914;2023-04-15T08:24:31;17.80;;;9.70;;
31910;SDS011;18457;52.432;16.914;2023-04-15T08:27:04;22.60;;;15.00;;
31910;SDS011;18457;52.432;16.914;2023-04-15T08:29:36;20.50;;;14.30;;
31910;SDS011;18457;52.432;16.914;2023-04-15T08:32:08;21.00;;;14.10;;
31910;SDS011;18457;52.432;16.914;2023-04-15T08:34:40;21.20;;;14.30;;
31910;SDS011;18457;52.432;16.914;2023-04-15T08:37:12;22.30;;;14.20;;
31910;SDS011;18457;52.432;16.914;2023-04-15T08:39:44;22.20;;;15.50;;
31910;SDS011;18457;52.432;16.914;2023-04-15T08:42:16;14.50;;;9.70;;
31910;SDS011;18457;52.432;16.914;2023-04-15T08:44:57;23.40;;;14.60;;
31910;SDS011;18457;52.432;16.914;2023-04-15T08:47:33;22.50;;;14.60;;
31910;SDS011;18457;52.432;16.914;2023-04-15T08:50:08;21.90;;;14.70;;
31910;SDS011;18457;52.432;16.914;2023-04-15T08:52:41;30.60;;;14.60;;
31910;SDS011;18457;52.432;16.914;2023-04-15T08:55:14;23.70;;;15.10;;
31910;SDS011;18457;52.432;16.914;2023-04-15T08:57:47;22.20;;;15.40;;
31910;SDS011;18457;52.432;16.914;2023-04-15T09:00:20;26.10;;;14.70;;
31910;SDS011;18457;52.432;16.914;2023-04-15T09:02:53;24.70;;;15.30;;
31910;SDS011;18457;52.432;16.914;2023-04-15T09:07:56;22.10;;;13.70;;
31910;SDS011;18457;52.432;16.914;2023-04-15T09:10:28;23.40;;;15.00;;
31910;SDS011;18457;52.432;16.914;2023-04-15T09:13:01;20.50;;;14.90;;
31910;SDS011;18457;52.432;16.914;2023-04-15T09:15:34;22.00;;;15.00;;
31910;SDS011;18457;52.432;16.914;2023-04-15T09:18:08;22.70;;;14.80;;
31910;SDS011;18457;52.432;16.914;2023-04-15T09:20:43;23.10;;;15.60;;
31910;SDS011;18457;52.432;16.914;2023-04-15T09:23:19;20.70;;;13.90;;
31910;SDS011;18457;52.432;16.914;2023-04-15T09:25:51;21.50;;;14.50;;
31910;SDS011;18457;52.432;16.914;2023-04-15T09:28:26;19.90;;;14.20;;
31910;SDS011;18457;52.432;16.914;2023-04-15T09:31:00;21.90;;;15.10;;
31910;SDS011;18457;52.432;16.914;2023-04-15T09:33:32;21.80;;;14.70;;
31910;SDS011;18457;52.432;16.914;2023-04-15T09:36:05;20.90;;;14.40;;
31910;SDS011;18457;52.432;16.914;2023-04-15T09:38:38;21.90;;;15.80;;
31910;SDS011;18457;52.432;16.914;2023-04-15T09:41:27;20.90;;;14.90;;
31910;SDS011;18457;52.432;16.914;2023-04-15T09:44:01;19.40;;;14.40;;
31910;SDS011;18457;52.432;16.914;2023-04-15T09:46:43;21.60;;;15.80;;
31910;SDS011;18457;52.432;16.914;2023-04-15T09:49:15;22.60;;;15.20;;
31910;SDS011;18457;52.432;16.914;2023-04-15T09:51:47;23.30;;;15.60;;
31910;SDS011;18457;52.432;16.914;2023-04-15T09:54:36;21.40;;;15.10;;
31910;SDS011;18457;52.432;16.914;2023-04-15T09:57:09;24.50;;;15.70;;
31910;SDS011;18457;52.432;16.914;2023-04-15T09:59:41;20.60;;;14.50;;
31910;SDS011;18457;52.432;16.914;2023-04-15T10:02:14;22.60;;;15.50;;
31910;SDS011;18457;52.432;16.914;2023-04-15T10:04:48;22.80;;;15.70;;
31910;SDS011;18457;52.432;16.914;2023-04-15T10:07:21;24.40;;;16.90;;
31910;SDS011;18457;52.432;16.914;2023-04-15T10:09:55;23.50;;;15.70;;
31910;SDS011;18457;52.432;16.914;2023-04-15T10:12:31;22.60;;;14.90;;
31910;SDS011;18457;52.432;16.914;2023-04-15T10:15:07;21.30;;;15.40;;
31910;SDS011;18457;52.432;16.914;2023-04-15T10:17:46;17.50;;;12.10;;
31910;SDS011;18457;52.432;16.914;2023-04-15T10:20:20;12.30;;;9.60;;
31910;SDS011;18457;52.432;16.914;2023-04-15T10:22:54;11.80;;;8.30;;
31910;SDS011;18457;52.432;16.914;2023-04-15T10:25:27;9.20;;;6.80;;
31910;SDS011;18457;52.432;16.914;2023-04-15T10:27:59;11.40;;;7.70;;
31910;SDS011;18457;52.432;16.914;2023-04-15T10:33:03;8.30;;;5.40;;
31910;SDS011;18457;52.432;16.914;2023-04-15T10:35:38;8.90;;;5.70;;
31910;SDS011;18457;52.432;16.914;2023-04-15T10:41:17;9.00;;;6.60;;
31910;SDS011;18457;52.432;16.914;2023-04-15T10:43:51;9.60;;;6.40;;
31910;SDS011;18457;52.432;16.914;2023-04-15T10:46:33;8.80;;;6.30;;
31910;SDS011;18457;52.432;16.914;2023-04-15T10:49:08;12.90;;;6.10;;
31910;SDS011;18457;52.432;16.914;2023-04-15T10:51:42;10.40;;;6.50;;
31910;SDS011;18457;52.432;16.914;2023-04-15T10:54:15;8.30;;;6.10;;
31910;SDS011;18457;52.432;16.914;2023-04-15T10:57:07;10.10;;;7.30;;
31910;SDS011;18457;52.432;16.914;2023-04-15T11:02:39;11.00;;;6.00;;
31910;SDS011;18457;52.432;16.914;2023-04-15T11:05:14;10.80;;;6.70;;
31910;SDS011;18457;52.432;16.914;2023-04-15T11:07:50;8.80;;;6.10;;
31910;SDS011;18457;52.432;16.914;2023-04-15T11:13:27;9.60;;;6.30;;
31910;SDS011;18457;52.432;16.914;2023-04-15T11:16:02;11.60;;;7.20;;
31910;SDS011;18457;52.432;16.914;2023-04-15T11:18:35;9.20;;;6.50;;
31910;SDS011;18457;52.432;16.914;2023-04-15T11:21:07;15.10;;;6.60;;
31910;SDS011;18457;52.432;16.914;2023-04-15T11:23:40;10.90;;;6.20;;
31910;SDS011;18457;52.432;16.914;2023-04-15T11:26:15;10.70;;;6.10;;
31910;SDS011;18457;52.432;16.914;2023-04-15T11:28:47;9.20;;;5.90;;
31910;SDS011;18457;52.432;16.914;2023-04-15T11:31:19;9.00;;;5.70;;
31910;SDS011;18457;52.432;16.914;2023-04-15T11:33:55;9.30;;;6.00;;
31910;SDS011;18457;52.432;16.914;2023-04-15T11:36:30;11.90;;;6.80;;
31910;SDS011;18457;52.432;16.914;2023-04-15T11:39:01;11.30;;;7.30;;
31910;SDS011;18457;52.432;16.914;2023-04-15T11:41:37;7.20;;;5.70;;
31910;SDS011;18457;52.432;16.914;2023-04-15T11:44:16;9.70;;;5.70;;
31910;SDS011;18457;52.432;16.914;2023-04-15T11:46:49;10.00;;;6.40;;
31910;SDS011;18457;52.432;16.914;2023-04-15T11:49:28;9.10;;;6.40;;
31910;SDS011;18457;52.432;16.914;2023-04-15T11:52:02;10.50;;;6.30;;
31910;SDS011;18457;52.432;16.914;2023-04-15T11:54:41;10.70;;;6.30;;
31910;SDS011;18457;52.432;16.914;2023-04-15T11:57:13;11.20;;;6.90;;
31910;SDS011;18457;52.432;16.914;2023-04-15T11:59:45;9.80;;;6.10;;
31910;SDS011;18457;52.432;16.914;2023-04-15T12:02:18;12.80;;;6.00;;
31910;SDS011;18457;52.432;16.914;2023-04-15T12:04:51;9.30;;;6.20;;
31910;SDS011;18457;52.432;16.914;2023-04-15T12:07:34;9.80;;;5.90;;
31910;SDS011;18457;52.432;16.914;2023-04-15T12:10:31;9.50;;;5.90;;
31910;SDS011;18457;52.432;16.914;2023-04-15T12:13:06;10.20;;;6.30;;
31910;SDS011;18457;52.432;16.914;2023-04-15T12:15:38;9.20;;;6.50;;
31910;SDS011;18457;52.432;16.914;2023-04-15T12:18:17;9.30;;;6.10;;
31910;SDS011;18457;52.432;16.914;2023-04-15T12:20:50;8.90;;;6.50;;
31910;SDS011;18457;52.432;16.914;2023-04-15T12:23:23;10.20;;;7.30;;
31910;SDS011;18457;52.432;16.914;2023-04-15T12:25:58;9.90;;;6.00;;
31910;SDS011;18457;52.432;16.914;2023-04-15T12:28:34;9.10;;;6.50;;
31910;SDS011;18457;52.432;16.914;2023-04-15T12:31:10;13.00;;;7.00;;
31910;SDS011;18457;52.432;16.914;2023-04-15T12:33:46;10.60;;;6.40;;
31910;SDS011;18457;52.432;16.914;2023-04-15T12:36:19;14.70;;;6.00;;
31910;SDS011;18457;52.432;16.914;2023-04-15T12:38:51;11.60;;;7.60;;
31910;SDS011;18457;52.432;16.914;2023-04-15T12:41:23;11.30;;;7.10;;
31910;SDS011;18457;52.432;16.914;2023-04-15T12:43:56;14.10;;;7.50;;
31910;SDS011;18457;52.432;16.914;2023-04-15T12:46:28;12.00;;;7.00;;
31910;SDS011;18457;52.432;16.914;2023-04-15T12:49:00;11.10;;;7.40;;
31910;SDS011;18457;52.432;16.914;2023-04-15T12:51:33;12.50;;;7.60;;
31910;SDS011;18457;52.432;16.914;2023-04-15T12:54:05;12.10;;;7.80;;
31910;SDS011;18457;52.432;16.914;2023-04-15T12:56:37;10.20;;;7.40;;
31910;SDS011;18457;52.432;16.914;2023-04-15T12:59:09;12.10;;;8.10;;
31910;SDS011;18457;52.432;16.914;2023-04-15T13:01:41;12.30;;;8.40;;
31910;SDS011;18457;52.432;16.914;2023-04-15T13:06:45;15.50;;;7.20;;
31910;SDS011;18457;52.432;16.914;2023-04-15T13:09:18;12.50;;;8.00;;
31910;SDS011;18457;52.432;16.914;2023-04-15T13:11:50;11.50;;;8.80;;
31910;SDS011;18457;52.432;16.914;2023-04-15T13:16:53;13.30;;;8.40;;
31910;SDS011;18457;52.432;16.914;2023-04-15T13:21:57;16.90;;;9.40;;
31910;SDS011;18457;52.432;16.914;2023-04-15T13:24:29;10.10;;;6.80;;
31910;SDS011;18457;52.432;16.914;2023-04-15T13:27:01;12.30;;;9.10;;
31910;SDS011;18457;52.432;16.914;2023-04-15T13:29:33;15.20;;;9.10;;
31910;SDS011;18457;52.432;16.914;2023-04-15T13:32:06;15.70;;;8.70;;
31910;SDS011;18457;52.432;16.914;2023-04-15T13:34:39;15.50;;;9.00;;
31910;SDS011;18457;52.432;16.914;2023-04-15T13:37:11;16.80;;;9.40;;
31910;SDS011;18457;52.432;16.914;2023-04-15T13:39:43;11.60;;;7.20;;
31910;SDS011;18457;52.432;16.914;2023-04-15T13:42:15;19.10;;;10.50;;
31910;SDS011;18457;52.432;16.914;2023-04-15T13:44:48;15.40;;;9.70;;
31910;SDS011;18457;52.432;16.914;2023-04-15T13:47:20;15.60;;;9.70;;
31910;SDS011;18457;52.432;16.914;2023-04-15T13:49:52;17.10;;;9.60;;
31910;SDS011;18457;52.432;16.914;2023-04-15T13:52:25;17.60;;;9.50;;
31910;SDS011;18457;52.432;16.914;2023-04-15T13:54:57;16.60;;;10.10;;
31910;SDS011;18457;52.432;16.914;2023-04-15T13:57:46;13.50;;;9.70;;
31910;SDS011;18457;52.432;16.914;2023-04-15T14:00:19;13.60;;;8.60;;
31910;SDS011;18457;52.432;16.914;2023-04-15T14:02:51;15.00;;;9.60;;
31910;SDS011;18457;52.432;16.914;2023-04-15T14:07:55;14.30;;;10.00;;
31910;SDS011;18457;52.432;16.914;2023-04-15T14:10:28;16.70;;;10.30;;
31910;SDS011;18457;52.432;16.914;2023-04-15T14:13:02;15.40;;;10.20;;
31910;SDS011;18457;52.432;16.914;2023-04-15T14:15:34;16.40;;;10.40;;
31910;SDS011;18457;52.432;16.914;2023-04-15T14:18:06;16.20;;;10.40;;
31910;SDS011;18457;52.432;16.914;2023-04-15T14:20:38;17.50;;;10.90;;
31910;SDS011;18457;52.432;16.914;2023-04-15T14:23:10;12.40;;;7.40;;
31910;SDS011;18457;52.432;16.914;2023-04-15T14:25:42;15.10;;;9.70;;
31910;SDS011;18457;52.432;16.914;2023-04-15T14:28:16;14.50;;;10.20;;
31910;SDS011;18457;52.432;16.914;2023-04-15T14:30:50;16.30;;;10.40;;
31910;SDS011;18457;52.432;16.914;2023-04-15T14:33:22;15.70;;;10.20;;
31910;SDS011;18457;52.432;16.914;2023-04-15T14:35:55;15.60;;;9.80;;
31910;SDS011;18457;52.432;16.914;2023-04-15T14:38:27;17.10;;;10.80;;
31910;SDS011;18457;52.432;16.914;2023-04-15T14:41:01;19.00;;;10.70;;
31910;SDS011;18457;52.432;16.914;2023-04-15T14:43:33;15.90;;;10.80;;
31910;SDS011;18457;52.432;16.914;2023-04-15T14:46:06;18.80;;;11.60;;
31910;SDS011;18457;52.432;16.914;2023-04-15T14:48:39;19.30;;;12.80;;
31910;SDS011;18457;52.432;16.914;2023-04-15T14:51:11;15.70;;;11.50;;
31910;SDS011;18457;52.432;16.914;2023-04-15T14:53:44;16.50;;;12.00;;
31910;SDS011;18457;52.432;16.914;2023-04-15T14:56:16;15.70;;;11.00;;
31910;SDS011;18457;52.432;16.914;2023-04-15T14:58:48;19.80;;;12.40;;
31910;SDS011;18457;52.432;16.914;2023-04-15T15:01:22;18.90;;;12.50;;
31910;SDS011;18457;52.432;16.914;2023-04-15T15:03:54;19.70;;;13.60;;
31910;SDS011;18457;52.432;16.914;2023-04-15T15:06:26;18.50;;;12.40;;
31910;SDS011;18457;52.432;16.914;2023-04-15T15:11:30;22.90;;;13.70;;
31910;SDS011;18457;52.432;16.914;2023-04-15T15:14:02;18.40;;;12.80;;
31910;SDS011;18457;52.432;16.914;2023-04-15T15:16:34;22.70;;;14.30;;
31910;SDS011;18457;52.432;16.914;2023-04-15T15:19:08;21.50;;;15.00;;
31910;SDS011;18457;52.432;16.914;2023-04-15T15:21:41;23.30;;;14.90;;
31910;SDS011;18457;52.432;16.914;2023-04-15T15:24:13;21.40;;;14.20;;
31910;SDS011;18457;52.432;16.914;2023-04-15T15:26:45;24.00;;;14.80;;
31910;SDS011;18457;52.432;16.914;2023-04-15T15:29:17;24.40;;;15.30;;